Time;durP1;ratioP1;P1;durP2;ratioP2;P2;SDS_P1;SDS_P2;PMS_P1;PMS_P2;Temp;Humidity;BMP_temperature;BMP_pressure;BME280_temperature;BME280_humidity;BME280_pressure;Samples;Min_cycle;Max_cycle;Signal;HPM_P1;HPM_P2
2023/04/15 00:01:59;;;;;;;4.78;2.97;;;;;;;;;;5073081;28;20379;-65
2023/04/15 00:04:25;;;;;;;6.88;3.00;;;;;;;;;;5073168;28;20364;-64
2023/04/15 00:06:52;;;;;;;7.55;2.95;;;;;;;;;;5073523;28;20036;-64
2023/04/15 00:09:18;;;;;;;6.50;3.00;;;;;;;;;;5073531;28;20493;-64
2023/04/15 00:11:43;;;;;;;5.93;3.13;;;;;;;;;;5084788;28;20100;-64
2023/04/15 00:14:08;;;;;;;12.13;2.80;;;;;;;;;;5079605;28;20107;-65
2023/04/15 00:16:34;;;;;;;10.40;3.28;;;;;;;;;;5073132;28;20024;-64
2023/04/15 00:18:59;;;;;;;7.38;3.40;;;;;;;;;;5074165;28;20024;-65
2023/04/15 00:21:24;;;;;;;7.28;3.03;;;;;;;;;;5072691;28;20096;-65
2023/04/15 00:23:52;;;;;;;6.22;2.97;;;;;;;;;;5072127;28;20027;-65
2023/04/15 00:26:18;;;;;;;15.27;3.35;;;;;;;;;;5073305;28;20475;-65
2023/04/15 00:28:44;;;;;;;5.28;2.88;;;;;;;;;;5073359;28;20077;-65
2023/04/15 00:31:09;;;;;;;9.70;3.72;;;;;;;;;;5089296;28;20069;-65
2023/04/15 00:33:35;;;;;;;6.20;3.08;;;;;;;;;;5081530;28;20513;-65
2023/04/15 00:36:01;;;;;;;6.20;3.10;;;;;;;;;;5073568;28;20506;-65
2023/04/15 00:38:27;;;;;;;9.55;3.15;;;;;;;;;;5069099;28;20036;-65
2023/04/15 00:40:52;;;;;;;6.43;3.22;;;;;;;;;;5054393;28;20124;-65
2023/04/15 00:43:17;;;;;;;8.52;3.95;;;;;;;;;;5057569;28;20123;-64
2023/04/15 00:45:43;;;;;;;6.03;2.72;;;;;;;;;;5045823;28;20028;-65
2023/04/15 00:48:09;;;;;;;4.18;2.50;;;;;;;;;;5048043;28;20051;-64
2023/04/15 00:50:34;;;;;;;4.88;2.53;;;;;;;;;;5029903;28;20103;-64
2023/04/15 00:53:00;;;;;;;7.10;3.28;;;;;;;;;;5072402;28;20107;-64
2023/04/15 00:55:25;;;;;;;5.50;3.08;;;;;;;;;;5072506;28;20024;-64
2023/04/15 00:57:51;;;;;;;11.30;3.63;;;;;;;;;;5072376;28;20531;-64
2023/04/15 01:00:16;;;;;;;5.57;2.83;;;;;;;;;;5072026;28;20042;-64
2023/04/15 01:02:42;;;;;;;5.80;3.00;;;;;;;;;;5072159;28;20033;-64
2023/04/15 01:05:08;;;;;;;8.75;3.65;;;;;;;;;;5084647;28;20047;-64
2023/04/15 01:07:33;;;;;;;4.78;2.63;;;;;;;;;;5080958;28;20028;-64
2023/04/15 01:09:58;;;;;;;7.60;3.45;;;;;;;;;;5075635;28;20540;-64
2023/04/15 01:12:25;;;;;;;8.00;3.15;;;;;;;;;;5072093;28;20125;-64
2023/04/15 01:14:51;;;;;;;9.75;3.53;;;;;;;;;;5072446;28;20048;-64
2023/04/15 01:17:16;;;;;;;11.07;3.20;;;;;;;;;;5054310;28;20064;-64
2023/04/15 01:19:41;;;;;;;7.00;3.33;;;;;;;;;;5071961;28;20058;-64
2023/04/15 01:22:07;;;;;;;9.02;3.28;;;;;;;;;;5072380;28;20070;-64
2023/04/15 01:24:33;;;;;;;7.57;3.40;;;;;;;;;;5071858;28;20477;-64
2023/04/15 01:26:58;;;;;;;5.88;3.38;;;;;;;;;;5071917;28;20017;-64
2023/04/15 01:29:23;;;;;;;12.02;3.85;;;;;;;;;;5074912;28;20908;-64
2023/04/15 01:31:52;;;;;;;8.90;3.35;;;;;;;;;;5092048;28;20028;-64
2023/04/15 01:34:18;;;;;;;7.53;4.15;;;;;;;;;;5074727;28;20039;-64
2023/04/15 01:36:43;;;;;;;10.13;3.47;;;;;;;;;;5079392;28;20443;-64
2023/04/15 01:39:08;;;;;;;5.10;3.15;;;;;;;;;;5071443;28;20040;-64
2023/04/15 01:41:34;;;;;;;5.32;3.10;;;;;;;;;;5071133;28;20024;-64
2023/04/15 01:44:00;;;;;;;5.13;3.25;;;;;;;;;;5071267;28;20020;-64
2023/04/15 01:46:25;;;;;;;11.57;3.83;;;;;;;;;;5071104;28;20149;-64
2023/04/15 01:48:50;;;;;;;5.95;3.63;;;;;;;;;;5084009;28;20024;-64
2023/04/15 01:51:16;;;;;;;6.55;3.55;;;;;;;;;;5071260;28;20056;-64
2023/04/15 01:53:41;;;;;;;9.30;4.07;;;;;;;;;;5075395;28;20020;-64
2023/04/15 01:56:06;;;;;;;4.82;2.83;;;;;;;;;;5071299;28;20169;-64
2023/04/15 01:58:32;;;;;;;5.80;3.25;;;;;;;;;;5071694;28;20117;-64
2023/04/15 02:00:57;;;;;;;9.80;3.42;;;;;;;;;;5071932;28;20032;-64
2023/04/15 02:03:24;;;;;;;6.35;3.35;;;;;;;;;;5081714;28;20527;-64
2023/04/15 02:05:49;;;;;;;8.77;3.53;;;;;;;;;;5071134;28;20475;-64
2023/04/15 02:08:15;;;;;;;7.85;3.85;;;;;;;;;;5070895;28;20048;-64
2023/04/15 02:10:40;;;;;;;8.05;3.65;;;;;;;;;;5070956;28;20051;-64
2023/04/15 02:13:05;;;;;;;5.45;3.33;;;;;;;;;;5070588;28;20055;-64
2023/04/15 02:15:32;;;;;;;8.65;3.55;;;;;;;;;;5071107;28;20382;-64
2023/04/15 02:17:58;;;;;;;7.43;3.95;;;;;;;;;;5071142;28;20021;-65
2023/04/15 02:20:23;;;;;;;7.75;3.92;;;;;;;;;;5071959;28;20207;-64
2023/04/15 02:22:48;;;;;;;7.80;3.97;;;;;;;;;;5084275;28;20386;-64
2023/04/15 02:25:15;;;;;;;6.93;3.28;;;;;;;;;;5071264;28;20032;-64
2023/04/15 02:27:41;;;;;;;9.43;3.75;;;;;;;;;;5070853;28;20020;-64
2023/04/15 02:30:07;;;;;;;9.50;3.67;;;;;;;;;;5074763;28;20020;-64
2023/04/15 02:32:32;;;;;;;7.60;3.28;;;;;;;;;;5079687;28;20398;-64
2023/04/15 02:35:04;;;;;;;6.53;4.07;;;;;;;;;;5070851;28;20031;-64
2023/04/15 02:37:30;;;;;;;6.68;3.30;;;;;;;;;;5070655;28;20048;-64
2023/04/15 02:39:56;;;;;;;6.95;3.67;;;;;;;;;;5070867;28;20013;-64
2023/04/15 02:42:21;;;;;;;10.98;3.63;;;;;;;;;;5070669;28;20029;-64
2023/04/15 02:44:46;;;;;;;10.57;3.63;;;;;;;;;;5070709;28;20017;-63
2023/04/15 02:47:11;;;;;;;8.50;3.97;;;;;;;;;;5070567;28;20029;-64
2023/04/15 02:49:37;;;;;;;7.60;3.80;;;;;;;;;;5069743;28;20050;-64
2023/04/15 02:52:02;;;;;;;8.13;3.75;;;;;;;;;;5069662;28;20471;-64
2023/04/15 02:54:27;;;;;;;13.40;3.85;;;;;;;;;;5077815;28;20110;-64
2023/04/15 02:56:54;;;;;;;14.55;4.90;;;;;;;;;;5060112;28;20032;-64
2023/04/15 02:59:20;;;;;;;9.10;4.47;;;;;;;;;;5039522;28;20238;-65
2023/04/15 03:01:45;;;;;;;11.00;4.78;;;;;;;;;;5044351;28;20028;-65
2023/04/15 03:04:11;;;;;;;11.27;5.03;;;;;;;;;;5081833;28;20540;-65
2023/04/15 03:06:36;;;;;;;11.27;3.75;;;;;;;;;;5073872;28;20151;-65
2023/04/15 03:09:02;;;;;;;14.15;4.68;;;;;;;;;;5074424;28;20046;-65
2023/04/15 03:11:31;;;;;;;9.15;4.55;;;;;;;;;;5073733;28;20103;-65
2023/04/15 03:13:57;;;;;;;12.50;4.22;;;;;;;;;;5073886;28;20386;-65
2023/04/15 03:16:22;;;;;;;6.25;3.85;;;;;;;;;;5075454;28;20024;-65
2023/04/15 03:18:47;;;;;;;11.60;4.47;;;;;;;;;;5074186;28;20074;-65
2023/04/15 03:21:13;;;;;;;11.25;5.10;;;;;;;;;;5073483;28;20024;-65
2023/04/15 03:23:38;;;;;;;8.32;3.85;;;;;;;;;;5073982;28;20154;-65
2023/04/15 03:26:04;;;;;;;9.52;4.93;;;;;;;;;;5084701;28;20031;-66
2023/04/15 03:28:29;;;;;;;9.10;4.28;;;;;;;;;;5073315;28;20471;-65
2023/04/15 03:30:55;;;;;;;9.15;4.05;;;;;;;;;;5086785;28;20494;-65
2023/04/15 03:33:20;;;;;;;7.93;4.20;;;;;;;;;;5082003;28;20057;-65
2023/04/15 03:35:45;;;;;;;8.35;4.50;;;;;;;;;;5078052;28;20028;-65
2023/04/15 03:38:11;;;;;;;13.02;4.00;;;;;;;;;;5074495;28;20021;-65
2023/04/15 03:40:36;;;;;;;12.57;4.88;;;;;;;;;;5073381;28;20483;-65
2023/04/15 03:43:01;;;;;;;8.48;4.68;;;;;;;;;;5073727;28;20016;-65
2023/04/15 03:45:26;;;;;;;8.32;4.68;;;;;;;;;;5074269;28;20024;-65
2023/04/15 03:47:52;;;;;;;9.20;3.50;;;;;;;;;;5073504;28;20020;-65
2023/04/15 03:50:17;;;;;;;7.78;4.03;;;;;;;;;;5072536;28;20027;-65
2023/04/15 03:52:43;;;;;;;11.60;3.90;;;;;;;;;;5075193;28;20056;-65
2023/04/15 03:55:08;;;;;;;11.52;4.20;;;;;;;;;;5072369;28;20107;-65
2023/04/15 03:57:37;;;;;;;8.75;3.60;;;;;;;;;;5072878;28;20020;-64
2023/04/15 04:00:03;;;;;;;8.45;4.00;;;;;;;;;;5072778;28;20040;-65
2023/04/15 04:02:28;;;;;;;6.88;4.15;;;;;;;;;;5083797;28;20016;-65
2023/04/15 04:04:54;;;;;;;6.90;3.67;;;;;;;;;;5077547;28;20118;-65
2023/04/15 04:07:19;;;;;;;7.57;4.30;;;;;;;;;;5073083;28;20020;-68
2023/04/15 04:09:44;;;;;;;8.27;4.63;;;;;;;;;;5073064;28;20021;-66
2023/04/15 04:12:10;;;;;;;7.07;4.05;;;;;;;;;;5074022;28;20037;-65
2023/04/15 04:14:35;;;;;;;13.23;4.53;;;;;;;;;;5072892;28;20054;-65
2023/04/15 04:17:00;;;;;;;9.65;4.22;;;;;;;;;;5072993;28;20020;-65
2023/04/15 04:19:26;;;;;;;6.78;4.38;;;;;;;;;;5074075;28;21288;-65
2023/04/15 04:21:51;;;;;;;10.00;4.68;;;;;;;;;;5084069;28;20039;-63
2023/04/15 04:24:16;;;;;;;10.15;4.60;;;;;;;;;;5072821;28;20024;-65
2023/04/15 04:26:42;;;;;;;9.52;4.32;;;;;;;;;;5073024;28;20044;-65
2023/04/15 04:29:07;;;;;;;8.68;4.32;;;;;;;;;;5072718;28;20013;-65
2023/04/15 04:31:32;;;;;;;10.65;5.05;;;;;;;;;;5077414;28;20032;-65
2023/04/15 04:33:57;;;;;;;8.82;4.32;;;;;;;;;;5072217;28;20012;-66
2023/04/15 04:36:23;;;;;;;13.93;4.68;;;;;;;;;;5072862;28;20030;-65
2023/04/15 04:38:48;;;;;;;6.65;4.30;;;;;;;;;;5072464;28;20060;-65
2023/04/15 04:41:13;;;;;;;9.35;5.43;;;;;;;;;;5072869;28;20340;-66
2023/04/15 04:43:38;;;;;;;9.35;4.75;;;;;;;;;;5083006;28;20054;-65
2023/04/15 04:46:04;;;;;;;10.90;4.90;;;;;;;;;;5074904;28;20016;-65
2023/04/15 04:48:29;;;;;;;13.63;5.63;;;;;;;;;;5076259;28;20437;-65
2023/04/15 04:50:54;;;;;;;13.18;5.63;;;;;;;;;;5071838;28;20031;-65
2023/04/15 04:53:20;;;;;;;14.50;5.47;;;;;;;;;;5071981;28;20036;-65
2023/04/15 04:55:45;;;;;;;9.38;5.75;;;;;;;;;;5071807;28;20051;-65
2023/04/15 04:58:11;;;;;;;10.55;5.57;;;;;;;;;;5081208;28;20028;-65
2023/04/15 05:00:37;;;;;;;9.60;6.15;;;;;;;;;;5071876;28;20059;-65
2023/04/15 05:03:02;;;;;;;14.05;6.20;;;;;;;;;;5072143;28;20024;-65
2023/04/15 05:05:28;;;;;;;16.23;5.57;;;;;;;;;;5082058;28;20030;-65
2023/04/15 05:07:53;;;;;;;11.23;5.57;;;;;;;;;;5075465;28;20035;-65
2023/04/15 05:10:18;;;;;;;15.10;5.63;;;;;;;;;;5054340;28;20030;-65
2023/04/15 05:12:44;;;;;;;9.82;5.78;;;;;;;;;;5072696;28;20032;-65
2023/04/15 05:15:09;;;;;;;10.68;6.55;;;;;;;;;;5073984;28;20028;-65
2023/04/15 05:17:34;;;;;;;13.32;5.80;;;;;;;;;;5071335;28;20032;-65
2023/04/15 05:20:00;;;;;;;12.40;6.15;;;;;;;;;;5072342;28;20032;-65
2023/04/15 05:22:26;;;;;;;17.88;6.28;;;;;;;;;;5071910;28;20467;-65
2023/04/15 05:24:51;;;;;;;14.93;5.80;;;;;;;;;;5072084;28;20080;-65
2023/04/15 05:27:17;;;;;;;22.10;7.32;;;;;;;;;;5072128;28;20024;-65
2023/04/15 05:29:43;;;;;;;10.73;6.10;;;;;;;;;;5076622;28;20094;-65
2023/04/15 05:32:08;;;;;;;14.65;6.60;;;;;;;;;;5079898;28;20104;-65
2023/04/15 05:34:33;;;;;;;15.80;6.20;;;;;;;;;;5071770;28;20074;-65
2023/04/15 05:36:58;;;;;;;12.95;5.80;;;;;;;;;;5071982;28;20028;-64
2023/04/15 05:39:25;;;;;;;10.90;5.55;;;;;;;;;;5069975;28;20036;-65
2023/04/15 05:41:50;;;;;;;13.32;6.40;;;;;;;;;;5080559;28;20398;-65
2023/04/15 05:44:16;;;;;;;10.30;6.18;;;;;;;;;;5085692;28;20020;-65
2023/04/15 05:46:42;;;;;;;12.70;6.20;;;;;;;;;;5071730;28;20025;-66
2023/04/15 05:49:07;;;;;;;12.18;6.55;;;;;;;;;;5071030;28;20424;-65
2023/04/15 05:51:32;;;;;;;14.27;5.82;;;;;;;;;;5070867;28;20484;-65
2023/04/15 05:53:58;;;;;;;17.88;7.03;;;;;;;;;;5074951;28;20028;-65
2023/04/15 05:56:25;;;;;;;14.27;6.93;;;;;;;;;;5071488;28;20139;-65
2023/04/15 05:58:50;;;;;;;13.70;6.20;;;;;;;;;;5071619;28;20537;-65
2023/04/15 06:01:16;;;;;;;14.98;6.60;;;;;;;;;;5072476;28;20021;-66
2023/04/15 06:03:41;;;;;;;14.88;7.65;;;;;;;;;;5071423;28;20028;-65
2023/04/15 06:06:07;;;;;;;13.40;7.75;;;;;;;;;;5070998;28;20090;-66
2023/04/15 06:08:32;;;;;;;10.32;7.30;;;;;;;;;;5061856;28;21473;-65
2023/04/15 06:10:57;;;;;;;12.05;7.72;;;;;;;;;;5040013;28;20127;-66
2023/04/15 06:13:23;;;;;;;11.02;7.70;;;;;;;;;;5039311;28;20801;-65
2023/04/15 06:15:48;;;;;;;13.85;7.38;;;;;;;;;;5041016;28;20892;-66
2023/04/15 06:18:13;;;;;;;12.35;7.97;;;;;;;;;;5037943;28;20888;-66
2023/04/15 06:20:39;;;;;;;15.05;9.10;;;;;;;;;;5041222;28;20027;-65
2023/04/15 06:23:04;;;;;;;14.77;8.23;;;;;;;;;;5046169;28;20052;-66
2023/04/15 06:25:29;;;;;;;12.60;8.23;;;;;;;;;;5039734;28;20029;-65
2023/04/15 06:27:55;;;;;;;12.60;9.18;;;;;;;;;;5047668;28;20020;-66
2023/04/15 06:30:20;;;;;;;12.35;9.15;;;;;;;;;;5044056;28;20137;-64
2023/04/15 06:32:46;;;;;;;15.63;8.82;;;;;;;;;;5044640;28;20152;-67
2023/04/15 06:35:11;;;;;;;12.48;8.32;;;;;;;;;;5055555;28;20537;-66
2023/04/15 06:37:36;;;;;;;12.50;8.55;;;;;;;;;;5056784;28;20050;-66
2023/04/15 06:40:03;;;;;;;18.45;8.93;;;;;;;;;;5025832;28;20024;-66
2023/04/15 06:42:29;;;;;;;13.57;8.73;;;;;;;;;;5048023;28;20917;-66
2023/04/15 06:44:55;;;;;;;15.80;8.23;;;;;;;;;;5036922;28;20127;-66
2023/04/15 06:47:20;;;;;;;12.50;8.45;;;;;;;;;;5046160;28;20113;-64
2023/04/15 06:49:45;;;;;;;16.10;8.82;;;;;;;;;;5072589;28;20027;-66
2023/04/15 06:52:11;;;;;;;14.98;8.55;;;;;;;;;;5077581;28;20039;-66
2023/04/15 06:54:36;;;;;;;13.68;8.15;;;;;;;;;;5074611;28;20063;-66
2023/04/15 06:57:02;;;;;;;13.25;8.70;;;;;;;;;;5073746;28;20031;-66
2023/04/15 06:59:27;;;;;;;20.00;9.52;;;;;;;;;;5073824;28;20025;-66
2023/04/15 07:01:53;;;;;;;13.13;8.43;;;;;;;;;;5073716;28;20032;-67
2023/04/15 07:04:19;;;;;;;15.60;8.95;;;;;;;;;;5077842;28;20028;-66
2023/04/15 07:06:44;;;;;;;17.10;8.07;;;;;;;;;;5077428;28;20441;-66
2023/04/15 07:09:10;;;;;;;11.68;8.45;;;;;;;;;;5073980;28;20048;-66
2023/04/15 07:11:35;;;;;;;14.85;9.65;;;;;;;;;;5079057;28;20024;-67
2023/04/15 07:14:00;;;;;;;15.52;9.38;;;;;;;;;;5073463;28;20485;-67
2023/04/15 07:16:26;;;;;;;16.45;9.60;;;;;;;;;;5073297;28;20017;-65
2023/04/15 07:18:51;;;;;;;11.90;8.50;;;;;;;;;;5043461;28;20878;-66
2023/04/15 07:21:17;;;;;;;14.85;8.57;;;;;;;;;;5035713;28;20051;-66
2023/04/15 07:23:42;;;;;;;22.98;10.45;;;;;;;;;;5049889;28;20076;-67
2023/04/15 07:26:08;;;;;;;17.55;9.65;;;;;;;;;;5047500;28;20033;-67
2023/04/15 07:28:33;;;;;;;20.50;10.10;;;;;;;;;;5065001;28;20020;-67
2023/04/15 07:30:58;;;;;;;13.30;9.60;;;;;;;;;;5086765;28;20058;-67
2023/04/15 07:33:23;;;;;;;13.57;9.73;;;;;;;;;;5074734;28;20025;-67
2023/04/15 07:35:49;;;;;;;19.00;9.63;;;;;;;;;;5073158;28;20021;-67
2023/04/15 07:38:14;;;;;;;17.42;10.55;;;;;;;;;;5074178;28;20028;-67
2023/04/15 07:40:39;;;;;;;14.32;9.85;;;;;;;;;;5072408;28;20063;-66
2023/04/15 07:43:05;;;;;;;14.85;11.40;;;;;;;;;;5072832;28;20089;-66
2023/04/15 07:45:30;;;;;;;20.90;11.05;;;;;;;;;;5073060;28;20032;-66
2023/04/15 07:47:56;;;;;;;15.15;11.35;;;;;;;;;;5072991;28;20070;-66
2023/04/15 07:50:22;;;;;;;18.50;11.45;;;;;;;;;;5075232;28;20024;-66
2023/04/15 07:52:47;;;;;;;20.08;12.43;;;;;;;;;;5072651;28;20024;-67
2023/04/15 07:55:13;;;;;;;20.15;12.73;;;;;;;;;;5072814;28;20104;-66
2023/04/15 07:57:38;;;;;;;18.10;12.30;;;;;;;;;;5073503;28;20064;-66
2023/04/15 08:00:06;;;;;;;16.40;11.88;;;;;;;;;;5075618;28;20027;-66
2023/04/15 08:02:31;;;;;;;16.50;10.93;;;;;;;;;;5073535;28;20110;-67
2023/04/15 08:04:57;;;;;;;15.60;11.23;;;;;;;;;;5059996;28;20047;-67
2023/04/15 08:07:22;;;;;;;19.75;11.80;;;;;;;;;;5035635;28;20020;-66
2023/04/15 08:09:48;;;;;;;15.27;10.50;;;;;;;;;;5046607;28;20798;-67
2023/04/15 08:12:13;;;;;;;16.00;10.82;;;;;;;;;;5044070;28;20161;-67
2023/04/15 08:14:39;;;;;;;17.42;11.18;;;;;;;;;;5037081;28;20025;-67
2023/04/15 08:17:05;;;;;;;13.02;10.30;;;;;;;;;;5038870;28;20028;-66
2023/04/15 08:19:30;;;;;;;19.95;10.70;;;;;;;;;;5037626;28;20020;-66
2023/04/15 08:21:56;;;;;;;14.23;10.00;;;;;;;;;;5017219;28;20131;-66
2023/04/15 08:24:21;;;;;;;16.35;9.70;;;;;;;;;;5037534;28;20813;-66
2023/04/15 08:26:47;;;;;;;13.32;9.80;;;;;;;;;;5036217;28;20044;-67
2023/04/15 08:29:12;;;;;;;13.68;10.60;;;;;;;;;;5033111;28;20032;-66
2023/04/15 08:31:37;;;;;;;12.48;9.35;;;;;;;;;;5032367;28;20875;-66
2023/04/15 08:34:02;;;;;;;10.40;9.20;;;;;;;;;;5045383;28;20020;-67
2023/04/15 08:36:28;;;;;;;11.52;8.25;;;;;;;;;;5038527;28;20913;-66
2023/04/15 08:38:53;;;;;;;14.75;8.80;;;;;;;;;;5045455;28;20028;-67
2023/04/15 08:41:22;;;;;;;11.75;8.82;;;;;;;;;;5045393;28;20060;-67
2023/04/15 08:43:53;;;;;;;11.10;8.38;;;;;;;;;;5048133;28;20793;-66
2023/04/15 08:46:19;;;;;;;11.05;8.10;;;;;;;;;;5047929;28;20058;-67
2023/04/15 08:48:45;;;;;;;9.80;7.65;;;;;;;;;;5043040;28;20024;-66
2023/04/15 08:51:14;;;;;;;11.57;8.23;;;;;;;;;;5040104;28;20901;-64
2023/04/15 08:53:40;;;;;;;16.88;8.57;;;;;;;;;;5032654;28;20058;-66
2023/04/15 08:56:09;;;;;;;10.57;7.45;;;;;;;;;;5042960;28;20024;-67
2023/04/15 08:58:35;;;;;;;8.77;6.60;;;;;;;;;;5045609;28;20864;-66
2023/04/15 09:01:00;;;;;;;11.38;6.43;;;;;;;;;;5039555;28;20073;-66
2023/04/15 09:03:26;;;;;;;11.27;6.75;;;;;;;;;;5049309;28;20270;-67
2023/04/15 09:05:51;;;;;;;9.52;5.60;;;;;;;;;;5041604;28;20027;-66
2023/04/15 09:08:17;;;;;;;9.73;6.90;;;;;;;;;;5040679;28;20030;-67
2023/04/15 09:10:42;;;;;;;10.07;7.15;;;;;;;;;;5080742;28;20028;-66
2023/04/15 09:13:08;;;;;;;8.90;6.07;;;;;;;;;;5071433;28;20028;-67
2023/04/15 09:15:35;;;;;;;10.38;5.50;;;;;;;;;;5080013;28;20023;-67
2023/04/15 09:18:00;;;;;;;8.80;5.05;;;;;;;;;;5072341;28;20044;-66
2023/04/15 09:20:26;;;;;;;7.90;5.50;;;;;;;;;;5079079;28;20424;-66
2023/04/15 09:22:51;;;;;;;10.35;5.28;;;;;;;;;;5074658;28;20028;-66
2023/04/15 09:25:29;;;;;;;6.90;4.78;;;;;;;;;;5085323;28;20096;-66
2023/04/15 09:27:55;;;;;;;9.10;5.70;;;;;;;;;;5072729;28;20020;-66
2023/04/15 09:30:21;;;;;;;10.20;5.30;;;;;;;;;;5084546;28;20027;-66
2023/04/15 09:32:54;;;;;;;9.93;4.80;;;;;;;;;;5074638;28;20458;-67
2023/04/15 09:35:21;;;;;;;6.80;4.50;;;;;;;;;;5072597;28;20028;-66
2023/04/15 09:37:46;;;;;;;7.78;4.60;;;;;;;;;;5072299;28;20036;-66
2023/04/15 09:40:12;;;;;;;8.38;3.80;;;;;;;;;;5083200;28;20432;-67
2023/04/15 09:42:53;;;;;;;5.88;3.75;;;;;;;;;;5073532;28;20031;-67
2023/04/15 09:45:18;;;;;;;5.00;3.40;;;;;;;;;;5075740;28;20024;-66
2023/04/15 09:47:44;;;;;;;4.35;3.20;;;;;;;;;;5072266;28;20520;-66
2023/04/15 09:50:09;;;;;;;8.63;3.78;;;;;;;;;;5074348;28;20076;-67
2023/04/15 09:52:40;;;;;;;5.13;3.92;;;;;;;;;;5075207;28;20085;-68
2023/04/15 09:55:05;;;;;;;5.20;3.10;;;;;;;;;;5072547;28;20471;-67
2023/04/15 09:57:35;;;;;;;6.35;3.78;;;;;;;;;;5078703;28;20035;-66
2023/04/15 10:00:01;;;;;;;4.72;3.55;;;;;;;;;;5070973;28;20025;-66
2023/04/15 10:02:28;;;;;;;12.35;4.40;;;;;;;;;;5071852;28;20033;-67
2023/04/15 10:04:54;;;;;;;7.78;3.67;;;;;;;;;;5070883;28;20032;-66
2023/04/15 10:07:21;;;;;;;5.75;3.17;;;;;;;;;;5082799;28;20427;-66
2023/04/15 10:09:47;;;;;;;5.53;3.33;;;;;;;;;;5070136;28;20425;-66
2023/04/15 10:12:13;;;;;;;5.93;3.75;;;;;;;;;;5075130;28;20383;-67
2023/04/15 10:14:39;;;;;;;5.45;3.22;;;;;;;;;;5070293;28;20033;-66
2023/04/15 10:17:07;;;;;;;6.68;2.97;;;;;;;;;;5083718;28;20055;-67
2023/04/15 10:19:33;;;;;;;7.22;3.88;;;;;;;;;;5071939;28;20035;-67
2023/04/15 10:21:59;;;;;;;4.63;3.33;;;;;;;;;;5077140;28;20399;-66
2023/04/15 10:24:24;;;;;;;5.47;3.42;;;;;;;;;;5071258;28;20032;-65
2023/04/15 10:26:50;;;;;;;6.65;3.47;;;;;;;;;;5073728;28;20020;-67
2023/04/15 10:29:15;;;;;;;6.55;3.67;;;;;;;;;;5071775;28;20043;-66
2023/04/15 10:31:41;;;;;;;6.45;3.33;;;;;;;;;;5078222;28;20033;-66
2023/04/15 10:34:07;;;;;;;8.27;3.50;;;;;;;;;;5070604;28;20074;-66
2023/04/15 10:36:33;;;;;;;4.07;2.60;;;;;;;;;;5072450;28;20032;-67
2023/04/15 10:38:58;;;;;;;7.97;3.13;;;;;;;;;;5070601;28;20070;-67
2023/04/15 10:41:25;;;;;;;4.95;3.45;;;;;;;;;;5079553;28;20103;-67
2023/04/15 10:43:51;;;;;;;7.57;2.72;;;;;;;;;;5070177;28;20079;-67
2023/04/15 10:46:34;;;;;;;3.80;2.17;;;;;;;;;;5079380;28;20028;-67
2023/04/15 10:49:05;;;;;;;3.92;2.28;;;;;;;;;;5070906;28;20025;-67
2023/04/15 10:51:31;;;;;;;4.60;2.50;;;;;;;;;;5081171;28;20020;-67
2023/04/15 10:53:58;;;;;;;3.88;2.55;;;;;;;;;;5071543;28;20031;-66
2023/04/15 10:56:23;;;;;;;5.35;3.08;;;;;;;;;;5079723;28;20067;-68
2023/04/15 10:58:48;;;;;;;3.22;1.90;;;;;;;;;;5071246;28;20044;-68
2023/04/15 11:01:13;;;;;;;4.70;1.70;;;;;;;;;;5076148;28;20034;-67
2023/04/15 11:03:41;;;;;;;4.32;1.48;;;;;;;;;;5070651;28;20025;-68
2023/04/15 11:06:06;;;;;;;3.63;2.22;;;;;;;;;;5072240;28;20095;-68
2023/04/15 11:08:50;;;;;;;3.53;2.28;;;;;;;;;;5070343;28;20116;-67
2023/04/15 11:11:15;;;;;;;3.30;2.25;;;;;;;;;;5070843;28;20029;-67
2023/04/15 11:13:47;;;;;;;7.10;2.90;;;;;;;;;;5071025;28;20135;-66
2023/04/15 11:16:12;;;;;;;4.90;2.20;;;;;;;;;;5075208;28;20035;-67
2023/04/15 11:18:37;;;;;;;3.85;1.77;;;;;;;;;;5074192;28;20383;-67
2023/04/15 11:21:06;;;;;;;3.97;2.50;;;;;;;;;;5078163;28;20366;-66
2023/04/15 11:23:35;;;;;;;3.38;2.00;;;;;;;;;;5073641;28;20113;-67
2023/04/15 11:26:02;;;;;;;4.65;2.67;;;;;;;;;;5074890;28;20032;-67
2023/04/15 11:28:28;;;;;;;4.05;2.63;;;;;;;;;;5073468;28;20028;-66
2023/04/15 11:30:54;;;;;;;4.97;3.42;;;;;;;;;;5075519;28;20023;-67
2023/04/15 11:33:20;;;;;;;2.92;1.75;;;;;;;;;;5074229;28;20024;-65
2023/04/15 11:35:45;;;;;;;3.60;1.83;;;;;;;;;;5073367;28;20025;-69
2023/04/15 11:38:11;;;;;;;8.73;2.47;;;;;;;;;;5082119;28;20462;-66
2023/04/15 11:40:37;;;;;;;2.90;1.92;;;;;;;;;;5079352;28;20024;-66
2023/04/15 11:43:13;;;;;;;4.53;1.42;;;;;;;;;;5073056;28;20031;-69
2023/04/15 11:45:47;;;;;;;2.22;1.10;;;;;;;;;;5076378;28;20069;-68
2023/04/15 11:48:12;;;;;;;;;;;;;;;;;;5058943;28;20056;-66
2023/04/15 11:50:39;;;;;;;4.03;1.40;;;;;;;;;;5073781;28;19947;-67
2023/04/15 11:53:06;;;;;;;4.10;1.45;;;;;;;;;;5082370;28;20360;-67
2023/04/15 11:55:40;;;;;;;2.63;1.30;;;;;;;;;;5077902;28;20059;-66
2023/04/15 11:58:14;;;;;;;2.55;1.45;;;;;;;;;;5077652;28;20033;-67
2023/04/15 12:00:40;;;;;;;3.33;1.73;;;;;;;;;;5078672;28;20043;-67
2023/04/15 12:03:24;;;;;;;3.63;1.98;;;;;;;;;;5073591;28;20455;-66
2023/04/15 12:06:10;;;;;;;8.48;2.38;;;;;;;;;;5074487;28;20474;-67
2023/04/15 12:08:55;;;;;;;2.95;1.52;;;;;;;;;;5084008;28;20371;-67
2023/04/15 12:11:30;;;;;;;2.92;1.75;;;;;;;;;;5058709;28;20574;-67
2023/04/15 12:14:25;;;;;;;3.47;1.92;;;;;;;;;;5072416;28;20027;-66
2023/04/15 12:16:52;;;;;;;2.92;1.90;;;;;;;;;;5061465;28;20025;-67
2023/04/15 12:19:37;;;;;;;3.53;1.80;;;;;;;;;;5072590;28;20031;-67
2023/04/15 12:22:12;;;;;;;6.68;1.98;;;;;;;;;;5083986;28;20036;-67
2023/04/15 12:24:38;;;;;;;3.95;1.90;;;;;;;;;;5072994;28;20162;-66
2023/04/15 12:27:04;;;;;;;3.33;2.13;;;;;;;;;;5079470;28;20135;-67
2023/04/15 12:29:30;;;;;;;3.95;2.33;;;;;;;;;;5075613;28;20048;-67
2023/04/15 12:32:04;;;;;;;5.68;2.33;;;;;;;;;;5075903;28;20093;-66
2023/04/15 12:34:31;;;;;;;3.93;1.87;;;;;;;;;;5077240;28;20044;-67
2023/04/15 12:36:56;;;;;;;2.95;1.90;;;;;;;;;;5073555;28;20501;-67
2023/04/15 12:39:23;;;;;;;4.82;1.90;;;;;;;;;;5072954;28;20111;-69
2023/04/15 12:41:48;;;;;;;3.05;1.80;;;;;;;;;;5074986;28;20024;-66
2023/04/15 12:44:14;;;;;;;2.73;1.63;;;;;;;;;;5084682;28;20024;-66
2023/04/15 12:46:40;;;;;;;6.43;2.17;;;;;;;;;;5082021;28;20267;-66
2023/04/15 12:49:05;;;;;;;2.75;1.77;;;;;;;;;;5076904;28;20273;-65
2023/04/15 12:51:31;;;;;;;3.85;2.10;;;;;;;;;;5078278;28;20034;-66
2023/04/15 12:53:56;;;;;;;4.65;1.80;;;;;;;;;;5075732;28;20459;-66
2023/04/15 12:56:22;;;;;;;3.03;2.10;;;;;;;;;;5075131;28;20131;-66
2023/04/15 12:58:48;;;;;;;3.65;2.20;;;;;;;;;;5074604;28;20027;-66
2023/04/15 13:01:13;;;;;;;5.40;2.67;;;;;;;;;;5075810;28;20048;-66
2023/04/15 13:03:38;;;;;;;3.45;1.80;;;;;;;;;;5075059;28;20399;-66
2023/04/15 13:06:04;;;;;;;3.00;2.00;;;;;;;;;;5072592;28;20062;-65
2023/04/15 13:08:30;;;;;;;3.78;2.08;;;;;;;;;;5081200;28;20021;-66
2023/04/15 13:10:55;;;;;;;3.08;1.73;;;;;;;;;;5062814;28;20041;-66
2023/04/15 13:13:21;;;;;;;4.55;2.53;;;;;;;;;;5042719;28;20883;-66
2023/04/15 13:15:46;;;;;;;4.72;2.03;;;;;;;;;;5038667;28;20078;-67
2023/04/15 13:18:11;;;;;;;4.50;2.33;;;;;;;;;;5067571;28;20055;-65
2023/04/15 13:20:37;;;;;;;2.70;1.85;;;;;;;;;;5071729;28;20479;-66
2023/04/15 13:23:02;;;;;;;2.55;1.52;;;;;;;;;;5073743;28;20016;-66
2023/04/15 13:25:27;;;;;;;2.83;1.50;;;;;;;;;;5071634;28;20036;-67
2023/04/15 13:27:53;;;;;;;2.40;1.08;;;;;;;;;;5078092;28;20077;-66
2023/04/15 13:30:18;;;;;;;2.65;1.48;;;;;;;;;;5081668;28;20024;-66
2023/04/15 13:32:43;;;;;;;3.30;1.70;;;;;;;;;;5083469;28;20039;-66
2023/04/15 13:35:09;;;;;;;3.57;2.00;;;;;;;;;;5072235;28;20032;-66
2023/04/15 13:37:34;;;;;;;4.07;1.88;;;;;;;;;;5078077;28;20263;-66
2023/04/15 13:39:59;;;;;;;3.92;1.77;;;;;;;;;;5071690;28;20537;-66
2023/04/15 13:42:26;;;;;;;2.42;1.15;;;;;;;;;;5077785;28;20072;-67
2023/04/15 13:44:51;;;;;;;3.42;1.73;;;;;;;;;;5070922;28;20111;-66
2023/04/15 13:47:20;;;;;;;3.17;1.70;;;;;;;;;;5084578;28;20533;-65
2023/04/15 13:49:45;;;;;;;3.58;2.13;;;;;;;;;;5071990;28;20025;-66
2023/04/15 13:52:11;;;;;;;3.47;1.70;;;;;;;;;;5073332;28;20026;-67
2023/04/15 13:54:36;;;;;;;3.30;1.60;;;;;;;;;;5077420;28;20024;-67
2023/04/15 13:57:01;;;;;;;3.42;2.00;;;;;;;;;;5074715;28;20104;-66
2023/04/15 13:59:26;;;;;;;2.97;1.58;;;;;;;;;;5070625;28;20467;-67
2023/04/15 14:01:52;;;;;;;3.95;1.80;;;;;;;;;;5072575;28;20146;-66
2023/04/15 14:04:17;;;;;;;2.50;1.38;;;;;;;;;;5082391;28;20039;-67
2023/04/15 14:06:42;;;;;;;3.15;1.55;;;;;;;;;;5083053;28;20033;-67
2023/04/15 14:09:08;;;;;;;2.90;1.42;;;;;;;;;;5070896;28;20470;-65
2023/04/15 14:11:35;;;;;;;5.55;1.58;;;;;;;;;;5066492;28;20027;-66
2023/04/15 14:14:00;;;;;;;3.25;1.40;;;;;;;;;;5071392;28;20111;-66
2023/04/15 14:16:26;;;;;;;3.78;1.70;;;;;;;;;;5070511;28;20096;-66
2023/04/15 14:18:51;;;;;;;2.95;1.77;;;;;;;;;;5079699;28;20040;-66
2023/04/15 14:21:16;;;;;;;4.20;1.67;;;;;;;;;;5070919;28;20040;-67
2023/04/15 14:23:42;;;;;;;3.20;1.90;;;;;;;;;;5079928;28;20028;-67
2023/04/15 14:26:07;;;;;;;2.50;1.40;;;;;;;;;;5070820;28;20013;-66
2023/04/15 14:28:32;;;;;;;4.82;1.23;;;;;;;;;;5077376;28;20036;-66
2023/04/15 14:30:57;;;;;;;4.65;2.17;;;;;;;;;;5083531;28;20398;-67
2023/04/15 14:33:23;;;;;;;2.93;1.57;;;;;;;;;;5075401;28;20041;-67